createdAt,value
2018-11-26T00:00:52.146Z,22.97
2018-11-26T00:03:20.257Z,26.40
2018-11-26T00:05:48.318Z,23.77
2018-11-26T00:08:16.678Z,21.57
2018-11-26T00:10:58.057Z,20.73
2018-11-26T00:13:26.450Z,15.43
2018-11-26T00:15:55.278Z,21.23
2018-11-26T00:18:23.471Z,21.93
2018-11-26T00:20:52.158Z,16.43
2018-11-26T00:23:20.547Z,19.80
2018-11-26T00:25:48.642Z,16.50
2018-11-26T00:28:16.785Z,12.97
2018-11-26T00:30:45.926Z,11.40
2018-11-26T00:33:14.059Z,17.70
2018-11-26T00:35:42.133Z,13.33
2018-11-26T00:38:10.965Z,15.77
2018-11-26T00:40:39.133Z,14.43
2018-11-26T00:43:08.266Z,9.73
2018-11-26T00:45:36.372Z,13.57
2018-11-26T00:48:04.518Z,12.97
2018-11-26T00:50:32.708Z,13.03
2018-11-26T00:53:01.406Z,12.03
2018-11-26T00:55:29.486Z,10.18
2018-11-26T00:57:58.497Z,12.17
2018-11-26T01:00:26.630Z,12.27
2018-11-26T01:02:55.423Z,12.80
2018-11-26T01:05:31.542Z,12.77
2018-11-26T01:07:59.645Z,18.50
2018-11-26T01:10:28.479Z,13.20
2018-11-26T01:12:57.266Z,15.37
2018-11-26T01:15:25.781Z,12.15
2018-11-26T01:17:53.950Z,10.47
2018-11-26T01:20:22.069Z,14.57
2018-11-26T01:22:50.650Z,11.60
2018-11-26T01:25:18.814Z,13.23
2018-11-26T01:27:47.002Z,16.00
2018-11-26T01:30:15.607Z,10.97
2018-11-26T01:32:43.770Z,13.63
2018-11-26T01:35:12.361Z,9.73
2018-11-26T01:37:41.324Z,15.37
2018-11-26T01:40:17.533Z,12.53
2018-11-26T01:42:45.834Z,12.93
2018-11-26T01:45:14.683Z,11.17
2018-11-26T01:47:42.827Z,12.47
2018-11-26T01:50:11.289Z,15.97
2018-11-26T01:52:39.461Z,11.03
2018-11-26T01:55:08.966Z,16.57
2018-11-26T01:57:38.174Z,17.70
2018-11-26T02:00:13.434Z,13.87
2018-11-26T02:02:42.474Z,13.47
2018-11-26T02:05:11.194Z,18.97
2018-11-26T02:07:39.302Z,18.12
2018-11-26T02:10:10.322Z,16.47
2018-11-26T02:12:39.481Z,17.30
2018-11-26T02:15:12.731Z,15.23
2018-11-26T02:21:12.395Z,15.97
2018-11-26T02:23:40.537Z,17.70
2018-11-26T02:26:08.593Z,18.10
2018-11-26T02:28:36.796Z,16.83
2018-11-26T02:31:05.074Z,19.60
2018-11-26T02:33:33.199Z,19.77
2018-11-26T02:36:01.593Z,20.33
2018-11-26T02:38:30.698Z,20.97
2018-11-26T02:40:59.506Z,19.20
2018-11-26T02:43:27.809Z,17.03
2018-11-26T02:45:55.974Z,18.90
2018-11-26T02:48:24.441Z,24.25
2018-11-26T02:50:52.494Z,19.17
2018-11-26T02:53:20.684Z,21.93
2018-11-26T02:55:48.726Z,19.77
2018-11-26T02:58:16.794Z,18.73
2018-11-26T03:00:46.350Z,24.05
2018-11-26T03:03:16.330Z,18.33
2018-11-26T03:05:44.499Z,23.67
2018-11-26T03:08:12.722Z,28.47
2018-11-26T03:10:40.841Z,16.00
2018-11-26T03:13:08.900Z,21.37
2018-11-26T03:15:36.962Z,23.00
2018-11-26T03:18:05.219Z,23.17
2018-11-26T03:20:33.661Z,28.90
2018-11-26T03:23:01.727Z,32.60
2018-11-26T03:25:29.884Z,22.60
2018-11-26T03:27:58.068Z,19.97
2018-11-26T03:30:27.249Z,20.75
2018-11-26T03:32:55.475Z,23.53
2018-11-26T03:35:23.617Z,18.83
2018-11-26T03:37:51.752Z,23.57
2018-11-26T03:40:19.950Z,23.30
2018-11-26T03:42:48.040Z,19.70
2018-11-26T03:45:17.205Z,19.70
2018-11-26T03:47:45.606Z,18.73
2018-11-26T03:50:14.297Z,19.73
2018-11-26T03:52:43.943Z,17.48
2018-11-26T03:55:12.785Z,22.00
2018-11-26T03:57:40.970Z,18.83
2018-11-26T04:00:13.214Z,15.53
2018-11-26T04:02:41.837Z,13.98
2018-11-26T04:05:10.428Z,17.60
2018-11-26T04:07:38.554Z,10.30
2018-11-26T04:10:10.284Z,14.57
2018-11-26T04:12:38.369Z,13.78
2018-11-26T04:15:08.822Z,15.47
2018-11-26T04:17:37.111Z,12.53
2018-11-26T04:20:06.287Z,14.57
2018-11-26T04:22:34.454Z,12.13
2018-11-26T04:25:03.622Z,11.77
2018-11-26T04:27:31.745Z,11.13
2018-11-26T04:29:59.938Z,15.87
2018-11-26T04:32:28.190Z,10.70
2018-11-26T04:34:56.372Z,10.87
2018-11-26T04:37:24.575Z,12.40
2018-11-26T04:39:53.138Z,12.33
2018-11-26T04:42:21.590Z,13.60
2018-11-26T04:44:49.821Z,10.80
2018-11-26T04:47:17.922Z,7.90
2018-11-26T04:49:45.977Z,9.28
2018-11-26T04:52:14.734Z,7.25
2018-11-26T04:54:42.810Z,7.90
2018-11-26T04:57:10.948Z,7.73
2018-11-26T04:59:39.114Z,9.10
2018-11-26T05:02:07.525Z,10.03
2018-11-26T05:04:35.853Z,10.73
2018-11-26T05:07:03.969Z,7.00
2018-11-26T05:09:32.666Z,8.93
2018-11-26T05:12:00.735Z,9.63
2018-11-26T05:14:29.109Z,7.17
2018-11-26T05:16:57.529Z,8.97
2018-11-26T05:19:25.605Z,11.03
2018-11-26T05:21:53.674Z,6.28
2018-11-26T05:24:21.718Z,7.40
2018-11-26T05:26:50.056Z,6.30
2018-11-26T05:29:18.286Z,6.40
2018-11-26T05:31:46.598Z,10.47
2018-11-26T05:34:14.878Z,9.60
2018-11-26T05:36:43.476Z,5.23
2018-11-26T05:39:11.688Z,5.17
2018-11-26T05:41:40.227Z,6.50
2018-11-26T05:44:09.493Z,6.37
2018-11-26T05:46:37.934Z,4.57
2018-11-26T05:49:07.037Z,8.07
2018-11-26T05:51:35.439Z,7.93
2018-11-26T05:54:03.798Z,6.63
2018-11-26T05:56:32.703Z,5.30
2018-11-26T05:59:01.478Z,6.73
2018-11-26T06:01:29.811Z,5.43
2018-11-26T06:03:58.935Z,6.33
2018-11-26T06:06:27.892Z,6.27
2018-11-26T06:08:56.329Z,5.70
2018-11-26T06:11:24.423Z,5.33
2018-11-26T06:13:52.610Z,6.67
2018-11-26T06:16:20.861Z,4.27
2018-11-26T06:18:49.446Z,5.13
2018-11-26T06:21:17.781Z,3.37
2018-11-26T06:23:48.018Z,10.47
2018-11-26T06:26:16.182Z,4.87
2018-11-26T06:28:44.349Z,3.83
2018-11-26T06:31:12.557Z,5.90
2018-11-26T06:33:41.308Z,4.35
2018-11-26T06:36:09.446Z,4.03
2018-11-26T06:38:37.846Z,4.43
2018-11-26T06:41:05.973Z,6.23
2018-11-26T06:43:35.404Z,3.30
2018-11-26T06:46:03.846Z,4.07
2018-11-26T06:48:31.967Z,3.30
2018-11-26T06:51:00.582Z,4.30
2018-11-26T06:53:29.181Z,3.37
2018-11-26T06:55:57.321Z,3.80
2018-11-26T06:58:26.718Z,5.63
2018-11-26T07:00:55.014Z,4.13
2018-11-26T07:03:23.961Z,3.13
2018-11-26T07:05:52.585Z,3.87
2018-11-26T07:08:20.765Z,4.83
2018-11-26T07:10:48.911Z,2.87
2018-11-26T07:13:17.117Z,5.17
2018-11-26T07:15:46.186Z,5.62
2018-11-26T07:18:14.342Z,3.13
2018-11-26T07:20:42.515Z,3.10
2018-11-26T07:23:10.704Z,3.27
2018-11-26T07:25:38.906Z,5.17
2018-11-26T07:28:08.711Z,3.23
2018-11-26T07:30:37.384Z,2.67
2018-11-26T07:33:06.642Z,2.33
2018-11-26T07:35:35.689Z,3.07
2018-11-26T07:38:03.765Z,2.43
2018-11-26T07:40:33.018Z,5.83
2018-11-26T07:43:04.010Z,3.00
2018-11-26T07:45:33.133Z,3.33
2018-11-26T07:48:01.283Z,6.27
2018-11-26T07:50:30.101Z,7.33
2018-11-26T07:52:58.830Z,3.13
2018-11-26T07:55:27.578Z,2.23
2018-11-26T07:57:55.875Z,2.70
2018-11-26T08:00:24.408Z,5.13
2018-11-26T08:02:53.258Z,2.93
2018-11-26T08:05:22.501Z,4.03
2018-11-26T08:07:50.558Z,4.73
2018-11-26T08:10:20.261Z,3.67
2018-11-26T08:12:49.266Z,2.35
2018-11-26T08:15:20.091Z,2.37
2018-11-26T08:17:49.148Z,2.33
2018-11-26T08:20:17.212Z,3.67
2018-11-26T08:22:46.173Z,4.60
2018-11-26T08:25:16.230Z,3.10
2018-11-26T08:27:45.458Z,2.57
2018-11-26T08:30:14.610Z,3.47
2018-11-26T08:32:43.221Z,2.30
2018-11-26T08:35:13.994Z,2.63
2018-11-26T08:37:48.602Z,2.87
2018-11-26T08:40:24.834Z,2.00
2018-11-26T08:43:02.749Z,3.50
2018-11-26T08:45:36.859Z,3.17
2018-11-26T08:48:10.722Z,3.07
2018-11-26T08:50:38.859Z,3.98
2018-11-26T08:53:07.794Z,2.93
2018-11-26T08:55:36.975Z,2.93
2018-11-26T08:58:05.697Z,1.53
2018-11-26T09:00:34.074Z,3.10
2018-11-26T09:03:03.122Z,1.70
2018-11-26T09:05:36.875Z,2.43
2018-11-26T09:08:05.318Z,2.70
2018-11-26T09:10:33.442Z,2.98
2018-11-26T09:13:01.743Z,4.13
2018-11-26T09:15:30.210Z,2.27
2018-11-26T09:17:58.269Z,2.60
2018-11-26T09:20:26.548Z,3.10
2018-11-26T09:22:54.619Z,2.30
2018-11-26T09:25:22.818Z,2.40
2018-11-26T09:27:52.402Z,2.50
2018-11-26T09:30:21.255Z,3.03
2018-11-26T09:32:49.986Z,3.83
2018-11-26T09:35:18.063Z,3.73
2018-11-26T09:37:46.147Z,2.53
2018-11-26T09:40:15.583Z,2.30
2018-11-26T09:42:43.690Z,2.57
2018-11-26T09:45:14.343Z,2.27
2018-11-26T09:47:42.570Z,2.98
2018-11-26T09:50:12.190Z,2.30
2018-11-26T09:52:41.451Z,2.80
2018-11-26T09:55:10.444Z,3.57
2018-11-26T09:57:39.358Z,2.37
2018-11-26T10:00:11.681Z,2.30
2018-11-26T10:02:40.110Z,3.22
2018-11-26T10:05:10.591Z,2.77
2018-11-26T10:08:42.059Z,2.40
2018-11-26T10:11:10.261Z,1.73
2018-11-26T10:13:38.379Z,2.30
2018-11-26T10:16:08.100Z,3.27
2018-11-26T10:18:36.381Z,2.60
2018-11-26T10:21:05.190Z,2.00
2018-11-26T10:23:33.889Z,3.33
2018-11-26T10:26:03.055Z,3.60
2018-11-26T10:28:31.708Z,2.17
2018-11-26T10:31:00.042Z,2.30
2018-11-26T10:33:28.438Z,1.90
2018-11-26T10:35:56.550Z,1.70
2018-11-26T10:38:24.614Z,2.00
2018-11-26T10:40:52.807Z,2.27
2018-11-26T10:43:20.881Z,2.17
2018-11-26T10:45:48.934Z,2.00
2018-11-26T10:48:17.002Z,2.00
2018-11-26T10:50:45.078Z,2.83
2018-11-26T10:53:13.162Z,4.10
2018-11-26T10:55:42.682Z,1.25
2018-11-26T10:58:10.938Z,1.57
2018-11-26T11:00:40.819Z,2.10
2018-11-26T11:03:10.090Z,1.40
2018-11-26T11:05:38.838Z,2.93
2018-11-26T11:08:08.397Z,1.37
2018-11-26T11:10:36.962Z,1.37
2018-11-26T11:13:05.810Z,0.90
2018-11-26T11:15:34.077Z,1.10
2018-11-26T11:18:02.735Z,1.47
2018-11-26T11:20:30.993Z,1.00
2018-11-26T11:22:59.082Z,1.20
2018-11-26T11:25:27.221Z,1.20
2018-11-26T11:27:56.463Z,2.80
2018-11-26T11:30:25.723Z,1.27
2018-11-26T11:32:53.971Z,1.03
2018-11-26T11:35:22.495Z,1.00
2018-11-26T11:37:52.126Z,1.53
2018-11-26T11:40:23.687Z,1.60
2018-11-26T11:42:52.816Z,1.70
2018-11-26T11:45:21.343Z,0.90
2018-11-26T11:47:49.780Z,0.80
2018-11-26T11:50:19.328Z,1.20
2018-11-26T11:52:48.557Z,0.60
2018-11-26T11:55:18.697Z,1.10
2018-11-26T11:57:47.007Z,1.60
2018-11-26T12:00:28.405Z,1.47
2018-11-26T12:02:56.675Z,2.73
2018-11-26T12:05:24.859Z,10.13
2018-11-26T12:07:53.115Z,2.97
2018-11-26T12:10:21.199Z,1.60
2018-11-26T12:12:49.576Z,1.35
2018-11-26T12:15:18.239Z,4.27
2018-11-26T12:17:47.902Z,3.73
2018-11-26T12:20:16.555Z,2.83
2018-11-26T12:22:45.059Z,4.03
2018-11-26T12:25:14.636Z,3.30
2018-11-26T12:27:42.803Z,0.93
2018-11-26T12:30:13.058Z,0.40
2018-11-26T12:32:41.855Z,0.72
2018-11-26T12:35:10.781Z,0.73
2018-11-26T12:37:39.372Z,0.40
2018-11-26T12:40:11.864Z,0.30
2018-11-26T12:42:40.083Z,4.85
2018-11-26T12:45:31.083Z,0.50
2018-11-26T12:47:59.223Z,0.93
2018-11-26T12:50:28.312Z,0.40
2018-11-26T12:52:56.787Z,1.17
2018-11-26T12:55:26.019Z,0.33
2018-11-26T12:57:55.309Z,1.63
2018-11-26T13:00:28.454Z,0.57
2018-11-26T13:03:02.039Z,0.67
2018-11-26T13:05:30.247Z,0.20
2018-11-26T13:07:58.322Z,0.30
2018-11-26T13:10:26.714Z,1.23
2018-11-26T13:12:55.243Z,3.37
2018-11-26T13:15:24.920Z,0.73
2018-11-26T13:17:53.419Z,0.80
2018-11-26T13:20:24.543Z,0.40
2018-11-26T13:22:54.159Z,1.30
2018-11-26T13:25:25.763Z,2.80
2018-11-26T13:27:55.207Z,0.40
2018-11-26T13:30:26.329Z,0.80
2018-11-26T13:32:55.784Z,1.40
2018-11-26T13:35:24.110Z,1.80
2018-11-26T13:37:52.144Z,1.20
2018-11-26T13:40:21.173Z,0.90
2018-11-26T13:42:49.866Z,0.63
2018-11-26T13:45:20.163Z,0.67
2018-11-26T13:47:48.387Z,2.03
2018-11-26T13:50:19.427Z,0.47
2018-11-26T13:52:47.743Z,1.97
2018-11-26T13:55:16.643Z,0.87
2018-11-26T13:57:44.747Z,1.07
2018-11-26T14:00:14.110Z,2.23
2018-11-26T14:02:42.683Z,1.20
2018-11-26T14:05:12.368Z,0.77
2018-11-26T14:07:40.763Z,1.90
2018-11-26T14:10:15.407Z,2.23
2018-11-26T14:12:44.503Z,1.10
2018-11-26T14:15:13.680Z,2.97
2018-11-26T14:17:41.751Z,2.02
2018-11-26T14:20:12.924Z,1.10
2018-11-26T14:22:41.182Z,1.23
2018-11-26T14:25:14.432Z,2.67
2018-11-26T14:27:43.387Z,2.00
2018-11-26T14:30:15.611Z,1.30
2018-11-26T14:32:44.005Z,3.93
2018-11-26T14:35:12.217Z,2.77
2018-11-26T14:37:40.332Z,4.45
2018-11-26T14:40:13.258Z,3.07
2018-11-26T14:42:41.672Z,3.83
2018-11-26T14:45:11.139Z,12.83
2018-11-26T14:47:39.792Z,13.53
2018-11-26T14:50:11.364Z,6.83
2018-11-26T14:52:39.711Z,5.50
2018-11-26T14:55:10.711Z,4.20
2018-11-26T14:57:38.991Z,2.67
2018-11-26T15:00:11.247Z,2.77
2018-11-26T15:02:40.127Z,1.93
2018-11-26T15:05:08.657Z,2.10
2018-11-26T15:07:37.547Z,1.93
2018-11-26T15:10:09.984Z,3.30
2018-11-26T15:12:38.121Z,1.50
2018-11-26T15:15:11.231Z,0.93
2018-11-26T15:17:41.022Z,2.42
2018-11-26T15:20:10.835Z,1.97
2018-11-26T15:22:39.000Z,1.80
2018-11-26T15:25:09.883Z,1.40
2018-11-26T15:27:38.703Z,1.75
2018-11-26T15:30:10.584Z,1.67
2018-11-26T15:32:38.844Z,1.60
2018-11-26T15:35:08.673Z,1.63
2018-11-26T15:37:36.835Z,2.17
2018-11-26T15:40:06.723Z,1.50
2018-11-26T15:42:35.796Z,2.27
2018-11-26T15:45:04.870Z,1.73
2018-11-26T15:47:32.977Z,2.33
2018-11-26T15:50:01.520Z,2.30
2018-11-26T15:52:30.476Z,1.70
2018-11-26T15:54:58.567Z,3.57
2018-11-26T15:57:26.775Z,1.80
2018-11-26T15:59:54.996Z,1.63
2018-11-26T16:02:23.579Z,6.43
2018-11-26T16:04:51.792Z,1.97
2018-11-26T16:07:20.428Z,1.70
2018-11-26T16:09:49.352Z,1.73
2018-11-26T16:12:18.072Z,1.63
2018-11-26T16:14:46.124Z,2.00
2018-11-26T16:17:14.339Z,1.87
2018-11-26T16:19:42.720Z,3.80
2018-11-26T16:22:11.639Z,3.30
2018-11-26T16:24:40.350Z,3.77
2018-11-26T16:27:08.425Z,5.10
2018-11-26T16:29:37.277Z,3.63
2018-11-26T16:32:05.623Z,7.10
2018-11-26T16:34:33.831Z,2.10
2018-11-26T16:37:03.135Z,2.10
2018-11-26T16:39:31.323Z,2.05
2018-11-26T16:41:59.455Z,2.83
2018-11-26T16:44:28.298Z,2.80
2018-11-26T16:46:57.191Z,2.17
2018-11-26T16:49:25.521Z,2.22
2018-11-26T16:51:53.851Z,2.13
2018-11-26T16:54:22.191Z,2.10
2018-11-26T16:56:50.391Z,1.83
2018-11-26T16:59:18.524Z,2.70
2018-11-26T17:01:46.800Z,2.20
2018-11-26T17:04:15.003Z,3.43
2018-11-26T17:06:43.949Z,3.27
2018-11-26T17:09:12.028Z,2.90
2018-11-26T17:11:40.291Z,2.58
2018-11-26T17:14:08.530Z,3.07
2018-11-26T17:16:38.953Z,2.80
2018-11-26T17:19:07.679Z,3.93
2018-11-26T17:21:36.295Z,2.87
2018-11-26T17:24:04.924Z,4.23
2018-11-26T17:26:33.060Z,4.03
2018-11-26T17:29:01.563Z,4.23
2018-11-26T17:31:30.159Z,3.33
2018-11-26T17:34:01.168Z,3.23
2018-11-26T17:36:29.659Z,3.20
2018-11-26T17:38:57.831Z,5.27
2018-11-26T17:41:26.140Z,4.58
2018-11-26T17:43:54.503Z,4.77
2018-11-26T17:46:23.203Z,5.47
2018-11-26T17:48:52.267Z,7.17
2018-11-26T17:51:20.567Z,5.77
2018-11-26T17:53:48.687Z,4.87
2018-11-26T17:56:17.483Z,4.70
2018-11-26T17:58:46.657Z,3.97
2018-11-26T18:01:19.739Z,5.47
2018-11-26T18:03:48.411Z,3.67
2018-11-26T18:06:16.529Z,3.00
2018-11-26T18:08:45.064Z,4.83
2018-11-26T18:11:13.431Z,3.83
2018-11-26T18:13:41.561Z,3.87
2018-11-26T18:16:09.639Z,3.73
2018-11-26T18:18:38.046Z,4.50
2018-11-26T18:21:06.308Z,4.90
2018-11-26T18:23:34.480Z,4.40
2018-11-26T18:26:02.684Z,4.92
2018-11-26T18:28:30.900Z,3.77
2018-11-26T18:30:59.068Z,6.40
2018-11-26T18:33:27.220Z,4.10
2018-11-26T18:35:55.599Z,4.80
2018-11-26T18:38:23.691Z,4.37
2018-11-26T18:40:52.935Z,6.10
2018-11-26T18:43:21.439Z,4.77
2018-11-26T18:45:49.492Z,4.33
2018-11-26T18:48:17.562Z,4.00
2018-11-26T18:50:45.631Z,5.67
2018-11-26T18:53:13.683Z,7.97
2018-11-26T18:55:42.599Z,8.05
2018-11-26T18:58:10.662Z,6.87
2018-11-26T19:00:42.675Z,6.97
2018-11-26T19:03:10.740Z,6.07
2018-11-26T19:05:38.796Z,11.53
2018-11-26T19:08:07.201Z,10.83
2018-11-26T19:10:36.905Z,9.90
2018-11-26T19:13:14.892Z,11.57
2018-11-26T19:15:44.776Z,8.30
2018-11-26T19:18:19.413Z,7.33
2018-11-26T19:20:47.468Z,7.10
2018-11-26T19:23:15.527Z,6.20
2018-11-26T19:25:44.074Z,7.87
2018-11-26T19:28:12.181Z,13.17
2018-11-26T19:30:41.399Z,8.73
2018-11-26T19:33:10.215Z,9.07
2018-11-26T19:35:38.695Z,8.03
2018-11-26T19:38:07.515Z,6.47
2018-11-26T19:40:36.772Z,6.20
2018-11-26T19:43:05.244Z,5.60
2018-11-26T19:45:33.391Z,5.70
2018-11-26T19:48:01.635Z,7.00
2018-11-26T19:50:30.228Z,8.03
2018-11-26T19:52:58.227Z,7.10
2018-11-26T19:55:27.623Z,6.30
2018-11-26T19:57:57.147Z,7.50
2018-11-26T20:00:28.759Z,7.40
2018-11-26T20:03:17.647Z,6.63
2018-11-26T20:05:57.750Z,5.90
2018-11-26T20:08:26.353Z,7.47
2018-11-26T20:10:55.059Z,8.93
2018-11-26T20:13:23.215Z,7.00
2018-11-26T20:15:52.874Z,10.60
2018-11-26T20:18:20.631Z,7.17
2018-11-26T20:20:48.835Z,5.80
2018-11-26T20:23:17.185Z,8.87
2018-11-26T20:25:46.189Z,6.70
2018-11-26T20:28:13.403Z,8.00
2018-11-26T20:30:42.507Z,7.63
2018-11-26T20:33:12.059Z,5.53
2018-11-26T20:35:40.719Z,5.20
2018-11-26T20:38:10.479Z,7.33
2018-11-26T20:40:40.011Z,7.80
2018-11-26T20:43:11.615Z,7.30
2018-11-26T20:45:41.758Z,7.27
2018-11-26T20:48:10.290Z,5.23
2018-11-26T20:50:40.079Z,5.25
2018-11-26T20:53:08.283Z,6.90
2018-11-26T20:55:36.369Z,10.30
2018-11-26T20:58:04.583Z,11.80
2018-11-26T21:00:33.867Z,7.43
2018-11-26T21:03:07.878Z,8.27
2018-11-26T21:05:36.824Z,7.57
2018-11-26T21:08:05.008Z,6.43
2018-11-26T21:10:33.487Z,6.67
2018-11-26T21:13:01.546Z,7.83
2018-11-26T21:15:30.196Z,9.53
2018-11-26T21:17:59.296Z,6.60
2018-11-26T21:20:29.185Z,6.73
2018-11-26T21:22:57.950Z,5.03
2018-11-26T21:25:26.272Z,6.43
2018-11-26T21:27:54.458Z,5.50
2018-11-26T21:30:22.543Z,5.35
2018-11-26T21:32:50.912Z,6.83
2018-11-26T21:35:19.646Z,8.10
2018-11-26T21:37:49.014Z,6.20
2018-11-26T21:40:20.452Z,6.80
2018-11-26T21:42:46.556Z,4.67
2018-11-26T21:45:17.443Z,6.27
2018-11-26T21:47:45.943Z,5.93
2018-11-26T21:50:14.755Z,4.33
2018-11-26T21:52:42.932Z,7.65
2018-11-26T21:55:12.387Z,4.23
2018-11-26T21:57:40.875Z,4.37
2018-11-26T22:00:26.990Z,5.73
2018-11-26T22:02:55.931Z,4.10
2018-11-26T22:05:24.455Z,4.30
2018-11-26T22:07:53.579Z,5.47
2018-11-26T22:10:23.137Z,5.07
2018-11-26T22:12:53.275Z,5.03
2018-11-26T22:15:22.247Z,7.50
2018-11-26T22:17:50.970Z,6.50
2018-11-26T22:20:21.418Z,7.63
2018-11-26T22:22:49.472Z,4.97
2018-11-26T22:25:19.248Z,9.10
2018-11-26T22:27:48.465Z,6.83
2018-11-26T22:30:23.582Z,5.47
2018-11-26T22:32:51.710Z,6.40
2018-11-26T22:35:20.428Z,10.07
2018-11-26T22:37:49.123Z,6.67
2018-11-26T22:40:18.458Z,8.20
2018-11-26T22:42:46.636Z,7.07
2018-11-26T22:45:17.374Z,6.40
2018-11-26T22:47:50.168Z,6.97
2018-11-26T22:50:20.175Z,5.83
2018-11-26T22:52:48.924Z,8.33
2018-11-26T22:55:17.864Z,7.20
2018-11-26T22:57:46.095Z,8.73
2018-11-26T23:00:25.315Z,8.30
2018-11-26T23:03:00.680Z,10.30
2018-11-26T23:05:29.137Z,11.10
2018-11-26T23:07:57.576Z,9.37
2018-11-26T23:10:25.977Z,12.67
2018-11-26T23:12:54.301Z,9.90
2018-11-26T23:15:22.457Z,10.47
2018-11-26T23:17:50.613Z,9.23
2018-11-26T23:20:19.560Z,12.87
2018-11-26T23:22:47.624Z,7.15
2018-11-26T23:25:16.931Z,11.37
2018-11-26T23:27:45.552Z,9.13
2018-11-26T23:30:23.591Z,12.23
2018-11-26T23:32:54.976Z,9.10
2018-11-26T23:35:23.151Z,9.10
2018-11-26T23:37:51.234Z,11.33
2018-11-26T23:40:19.439Z,12.20
2018-11-26T23:42:47.578Z,11.38
2018-11-26T23:45:18.802Z,13.70
2018-11-26T23:47:46.887Z,13.60
2018-11-26T23:50:15.835Z,11.80
2018-11-26T23:52:44.319Z,11.33
2018-11-26T23:55:13.219Z,13.43
2018-11-26T23:57:41.323Z,15.20
